Time;durP1;ratioP1;P1;durP2;ratioP2;P2;SDS_P1;SDS_P2;PMS_P1;PMS_P2;Temp;Humidity;BMP_temperature;BMP_pressure;BME280_temperature;BME280_humidity;BME280_pressure;Samples;Min_cycle;Max_cycle;Signal;HPM_P1;HPM_P2
2021/06/01 00:01:26;;;;;;;6.75;3.53;;;19.30;99.90;;;;;;5090662;28;20420;-90
2021/06/01 00:03:52;;;;;;;3.60;3.03;;;19.20;99.90;;;;;;5092587;28;20396;-89
2021/06/01 00:06:18;;;;;;;5.50;3.67;;;19.20;99.90;;;;;;5074877;28;20035;-90
2021/06/01 00:08:44;;;;;;;6.07;3.75;;;19.10;99.90;;;;;;5074321;28;20036;-90
2021/06/01 00:11:12;;;;;;;7.07;4.18;;;19.10;99.90;;;;;;5070789;28;20097;-91
2021/06/01 00:13:38;;;;;;;4.97;4.05;;;19.00;99.90;;;;;;5092413;28;20028;-90
2021/06/01 00:16:05;;;;;;;4.78;3.78;;;19.00;99.90;;;;;;5091918;28;20031;-90
2021/06/01 00:18:31;;;;;;;3.42;3.08;;;18.90;99.90;;;;;;5072800;28;20504;-90
2021/06/01 00:21:00;;;;;;;3.75;2.75;;;18.90;99.90;;;;;;5083624;28;20439;-91
2021/06/01 00:23:36;;;;;;;3.20;2.50;;;18.90;99.90;;;;;;5074745;28;20505;-91
2021/06/01 00:26:21;;;;;;;3.25;2.60;;;18.90;99.90;;;;;;5089675;28;20460;-91
2021/06/01 00:28:51;;;;;;;4.35;2.25;;;18.80;99.90;;;;;;5073379;28;20024;-90
2021/06/01 00:31:21;;;;;;;3.15;2.30;;;18.80;99.90;;;;;;5090904;28;20380;-90
2021/06/01 00:33:52;;;;;;;4.70;2.40;;;18.80;99.90;;;;;;5090140;28;20508;-90
2021/06/01 00:36:22;;;;;;;6.22;2.28;;;18.80;99.90;;;;;;5089294;28;20054;-91
2021/06/01 00:38:49;;;;;;;2.90;2.22;;;18.70;99.90;;;;;;5090444;28;20119;-91
2021/06/01 00:41:25;;;;;;;2.20;2.00;;;18.80;99.90;;;;;;5090629;28;20082;-91
2021/06/01 00:43:53;;;;;;;3.03;2.65;;;18.80;99.90;;;;;;5090113;28;20020;-91
2021/06/01 00:46:30;;;;;;;4.13;2.45;;;18.80;99.90;;;;;;5091833;28;20024;-90
2021/06/01 00:49:14;;;;;;;1.73;1.48;;;18.70;99.90;;;;;;5072862;28;20515;-90
2021/06/01 00:51:40;;;;;;;2.55;2.35;;;18.70;99.90;;;;;;5090378;28;20109;-91
2021/06/01 00:54:18;;;;;;;5.60;5.13;;;18.80;99.90;;;;;;5089153;28;20082;-91
2021/06/01 00:56:59;;;;;;;4.18;3.40;;;18.70;99.90;;;;;;5081297;28;20385;-92
2021/06/01 00:59:25;;;;;;;2.85;2.40;;;18.70;99.90;;;;;;5086574;28;20032;-90
2021/06/01 01:01:51;;;;;;;2.63;2.20;;;18.60;99.90;;;;;;5082676;28;20386;-90
2021/06/01 01:04:16;;;;;;;2.70;2.15;;;18.60;99.90;;;;;;5087058;28;20099;-91
2021/06/01 01:06:58;;;;;;;2.88;2.10;;;18.70;99.90;;;;;;5072418;28;20518;-90
2021/06/01 01:09:31;;;;;;;2.30;2.10;;;18.60;99.90;;;;;;5079334;28;20028;-90
2021/06/01 01:12:03;;;;;;;2.85;2.08;;;18.60;99.90;;;;;;5089495;28;20107;-90
2021/06/01 01:14:36;;;;;;;4.05;2.67;;;18.60;99.90;;;;;;5085814;28;20546;-90
2021/06/01 01:17:07;;;;;;;2.47;2.28;;;18.60;99.90;;;;;;5086234;28;20050;-90
2021/06/01 01:19:54;;;;;;;3.85;2.15;;;18.50;99.90;;;;;;5090879;28;20036;-90
2021/06/01 01:22:21;;;;;;;4.15;2.15;;;18.50;99.90;;;;;;5089478;28;20147;-90
2021/06/01 01:24:56;;;;;;;4.45;2.20;;;18.50;99.90;;;;;;5091642;28;20095;-90
2021/06/01 01:27:40;;;;;;;2.75;2.17;;;18.50;99.90;;;;;;5063738;28;20032;-90
2021/06/01 01:30:08;;;;;;;2.45;2.20;;;18.40;99.90;;;;;;5080728;28;20035;-90
2021/06/01 01:32:47;;;;;;;3.70;2.20;;;18.30;99.90;;;;;;5093413;28;20044;-91
2021/06/01 01:35:16;;;;;;;2.90;2.30;;;18.30;99.90;;;;;;5074987;28;20046;-90
2021/06/01 01:37:44;;;;;;;4.35;2.05;;;18.30;99.90;;;;;;5085793;28;20032;-89
2021/06/01 01:40:10;;;;;;;3.70;2.15;;;18.50;99.90;;;;;;5092452;28;20050;-90
2021/06/01 01:42:48;;;;;;;3.03;2.40;;;18.20;99.90;;;;;;5085368;28;20035;-90
2021/06/01 01:45:29;;;;;;;2.60;1.95;;;18.30;99.90;;;;;;5075903;28;20035;-90
2021/06/01 01:50:44;;;;;;;2.90;2.10;;;18.10;99.90;;;;;;5087692;28;20042;-90
2021/06/01 01:53:15;;;;;;;2.65;2.20;;;18.10;99.90;;;;;;5086717;28;20070;-90
2021/06/01 01:55:45;;;;;;;2.55;1.90;;;18.10;99.90;;;;;;5090639;28;20031;-90
2021/06/01 01:58:12;;;;;;;2.15;1.98;;;18.50;99.90;;;;;;5074764;28;20031;-90
2021/06/01 02:00:38;;;;;;;4.03;2.40;;;18.10;99.90;;;;;;5092512;28;20380;-90
2021/06/01 02:03:05;;;;;;;2.50;2.30;;;18.00;99.90;;;;;;5087179;28;20038;-90
2021/06/01 02:05:31;;;;;;;3.10;2.05;;;18.00;99.90;;;;;;5083499;28;20023;-90
2021/06/01 02:07:57;;;;;;;3.30;2.35;;;18.00;99.90;;;;;;5092058;28;20055;-91
2021/06/01 02:10:23;;;;;;;3.67;2.10;;;18.00;99.90;;;;;;5088591;28;20032;-90
2021/06/01 02:12:49;;;;;;;3.97;2.13;;;18.00;99.90;;;;;;5092136;28;20159;-90
2021/06/01 02:15:14;;;;;;;2.92;2.38;;;17.90;99.90;;;;;;5081117;28;20542;-90
2021/06/01 02:17:40;;;;;;;2.67;2.08;;;17.90;99.90;;;;;;5074138;28;20027;-90
2021/06/01 02:20:07;;;;;;;2.50;2.20;;;17.80;99.90;;;;;;5090984;28;20035;-90
2021/06/01 02:26:06;;;;;;;3.72;2.45;;;17.80;99.90;;;;;;5088282;28;20048;-90
2021/06/01 02:28:41;;;;;;;3.50;2.15;;;17.90;99.90;;;;;;5073369;28;20021;-90
2021/06/01 02:31:13;;;;;;;3.85;2.70;;;17.80;99.90;;;;;;5091824;28;20039;-90
2021/06/01 02:33:42;;;;;;;3.05;2.45;;;17.80;99.90;;;;;;5051059;28;20078;-90
2021/06/01 02:36:08;;;;;;;4.00;2.53;;;17.80;99.90;;;;;;5071068;28;20020;-89
2021/06/01 02:38:35;;;;;;;4.95;2.47;;;17.70;99.90;;;;;;5053326;28;20020;-91
2021/06/01 02:41:03;;;;;;;2.97;2.08;;;17.70;99.90;;;;;;5069432;28;20024;-90
2021/06/01 02:43:30;;;;;;;4.35;2.30;;;17.70;99.90;;;;;;5056076;28;20041;-91
2021/06/01 02:45:56;;;;;;;3.20;2.30;;;17.60;99.90;;;;;;5055724;28;20051;-90
2021/06/01 02:48:23;;;;;;;2.40;2.10;;;17.70;99.90;;;;;;5071853;28;20112;-90
2021/06/01 02:50:51;;;;;;;4.45;2.30;;;17.60;99.90;;;;;;5052787;28;20063;-90
2021/06/01 02:53:18;;;;;;;3.58;2.00;;;17.60;99.90;;;;;;5071614;28;20036;-90
2021/06/01 02:55:44;;;;;;;4.35;2.20;;;17.60;99.90;;;;;;5069663;28;20021;-91
2021/06/01 02:58:11;;;;;;;4.43;2.33;;;17.60;99.90;;;;;;5072147;28;20033;-90
2021/06/01 03:00:39;;;;;;;3.40;2.05;;;17.60;99.90;;;;;;5053189;28;20074;-90
2021/06/01 03:03:09;;;;;;;3.85;2.13;;;17.60;99.90;;;;;;5070834;28;20553;-90
2021/06/01 03:05:35;;;;;;;2.40;2.20;;;17.50;99.90;;;;;;5054685;28;20111;-90
2021/06/01 03:08:10;;;;;;;4.45;2.20;;;17.50;99.90;;;;;;5071080;28;20119;-90
2021/06/01 03:10:35;;;;;;;2.53;2.10;;;17.40;99.90;;;;;;5071141;28;20093;-90
2021/06/01 03:13:01;;;;;;;3.55;2.15;;;17.50;99.90;;;;;;5072819;28;20021;-91
2021/06/01 03:15:27;;;;;;;3.25;2.10;;;17.50;99.90;;;;;;5071358;28;20473;-90
2021/06/01 03:17:54;;;;;;;5.03;2.50;;;17.40;99.90;;;;;;5070484;28;20017;-91
2021/06/01 03:20:20;;;;;;;2.63;1.80;;;17.40;99.90;;;;;;5054201;28;20119;-90
2021/06/01 03:22:47;;;;;;;2.33;1.95;;;17.40;99.90;;;;;;5070590;28;20122;-90
2021/06/01 03:25:13;;;;;;;2.58;2.38;;;17.40;99.90;;;;;;5071187;28;20028;-90
2021/06/01 03:27:40;;;;;;;2.97;2.42;;;17.30;99.90;;;;;;5052402;28;20032;-90
2021/06/01 03:30:07;;;;;;;2.95;1.90;;;17.30;99.90;;;;;;5070093;28;20052;-91
2021/06/01 03:32:33;;;;;;;2.50;2.00;;;17.40;99.90;;;;;;5078687;28;20567;-90
2021/06/01 03:34:59;;;;;;;2.05;1.85;;;17.30;99.90;;;;;;5089686;28;20124;-90
2021/06/01 03:37:24;;;;;;;6.40;2.28;;;17.30;99.90;;;;;;5090880;28;20031;-90
2021/06/01 03:39:50;;;;;;;2.45;2.10;;;17.30;99.90;;;;;;5074017;28;20052;-90
2021/06/01 03:42:16;;;;;;;2.97;1.90;;;17.30;99.90;;;;;;5073357;28;20138;-89
2021/06/01 03:44:42;;;;;;;2.70;2.10;;;17.30;99.90;;;;;;5074402;28;20024;-90
2021/06/01 03:47:08;;;;;;;4.05;2.42;;;17.20;99.90;;;;;;5073484;28;20142;-90
2021/06/01 03:49:40;;;;;;;2.75;2.20;;;17.30;99.90;;;;;;5087880;28;20516;-90
2021/06/01 03:52:08;;;;;;;4.00;2.08;;;17.10;99.90;;;;;;5071014;28;20024;-90
2021/06/01 03:54:38;;;;;;;2.40;2.10;;;17.10;99.90;;;;;;5090030;28;20024;-91
2021/06/01 03:57:10;;;;;;;3.65;2.20;;;17.10;99.90;;;;;;5090570;28;20028;-90
2021/06/01 03:59:35;;;;;;;4.00;2.60;;;17.10;99.90;;;;;;5088295;28;20031;-90
2021/06/01 04:02:01;;;;;;;3.15;2.08;;;17.10;99.90;;;;;;5073283;28;20040;-90
2021/06/01 04:04:26;;;;;;;2.80;2.00;;;17.10;99.90;;;;;;5072585;28;20488;-91
2021/06/01 04:06:52;;;;;;;3.28;2.13;;;17.10;99.90;;;;;;5074373;28;20090;-90
2021/06/01 04:09:18;;;;;;;3.33;2.03;;;17.00;99.90;;;;;;5090363;28;20182;-90
2021/06/01 04:11:43;;;;;;;3.80;2.10;;;17.10;99.90;;;;;;5090666;28;20028;-90
2021/06/01 04:14:09;;;;;;;2.53;2.20;;;17.00;99.90;;;;;;5073551;28;20040;-90
2021/06/01 04:16:35;;;;;;;2.35;2.15;;;17.10;99.90;;;;;;5087950;28;20050;-91
2021/06/01 04:19:00;;;;;;;2.45;2.13;;;17.00;99.90;;;;;;5092119;28;20070;-91
2021/06/01 04:21:26;;;;;;;3.47;2.22;;;17.00;99.90;;;;;;5091602;28;20395;-91
2021/06/01 04:23:52;;;;;;;2.97;2.50;;;17.00;99.90;;;;;;5089852;28;20035;-90
2021/06/01 04:26:17;;;;;;;3.65;2.17;;;17.00;99.90;;;;;;5090536;28;20025;-90
2021/06/01 04:28:43;;;;;;;4.80;2.15;;;16.90;99.90;;;;;;5089949;28;20067;-90
2021/06/01 04:31:08;;;;;;;3.17;2.20;;;16.90;99.90;;;;;;5091182;28;20012;-91
2021/06/01 04:33:34;;;;;;;4.30;2.10;;;16.90;99.90;;;;;;5054880;28;20570;-90
2021/06/01 04:36:00;;;;;;;4.97;2.10;;;16.90;99.90;;;;;;5060958;28;20051;-91
2021/06/01 04:38:26;;;;;;;2.78;2.20;;;17.00;99.90;;;;;;5068593;28;20510;-90
2021/06/01 04:40:52;;;;;;;5.65;2.40;;;16.90;99.90;;;;;;5069082;28;20070;-90
2021/06/01 04:43:18;;;;;;;4.53;2.30;;;17.00;99.90;;;;;;5070054;28;20284;-90
2021/06/01 04:45:44;;;;;;;3.60;2.40;;;17.00;99.90;;;;;;5071253;28;20036;-90
2021/06/01 04:48:09;;;;;;;2.90;2.33;;;16.90;99.90;;;;;;5052733;28;20032;-90
2021/06/01 04:50:35;;;;;;;4.35;2.13;;;17.00;99.90;;;;;;5068621;28;20077;-91
2021/06/01 04:53:00;;;;;;;4.90;2.40;;;17.00;99.90;;;;;;5052619;28;20512;-90
2021/06/01 04:55:26;;;;;;;3.38;2.75;;;17.10;99.90;;;;;;5052275;28;20096;-90
2021/06/01 04:57:52;;;;;;;2.30;2.10;;;17.10;99.90;;;;;;5071381;28;20059;-90
2021/06/01 05:00:18;;;;;;;5.60;2.17;;;17.10;99.90;;;;;;5069256;28;20498;-91
2021/06/01 05:02:44;;;;;;;4.32;2.30;;;17.10;99.90;;;;;;5073095;28;20033;-90
2021/06/01 05:05:10;;;;;;;5.20;2.30;;;17.20;99.90;;;;;;5057058;28;20408;-90
2021/06/01 05:07:36;;;;;;;4.72;2.58;;;17.10;99.90;;;;;;5071654;28;20405;-91
2021/06/01 05:10:03;;;;;;;4.38;2.25;;;17.20;99.90;;;;;;5074704;28;20023;-91
2021/06/01 05:12:29;;;;;;;2.40;2.20;;;17.20;99.90;;;;;;5073152;28;20044;-90
2021/06/01 05:14:55;;;;;;;3.33;2.13;;;17.20;99.90;;;;;;5054047;28;20483;-90
2021/06/01 05:17:22;;;;;;;3.25;2.30;;;17.30;99.90;;;;;;5073323;28;20043;-90
2021/06/01 05:19:47;;;;;;;5.72;2.58;;;17.40;99.90;;;;;;5056522;28;20402;-91
2021/06/01 05:22:13;;;;;;;6.28;2.85;;;17.40;99.90;;;;;;5072953;28;20033;-90
2021/06/01 05:24:39;;;;;;;4.35;2.67;;;17.50;99.90;;;;;;5073108;28;20108;-90
2021/06/01 05:27:06;;;;;;;2.30;2.10;;;17.60;99.90;;;;;;5073131;28;20039;-91
2021/06/01 05:29:35;;;;;;;6.07;2.20;;;17.60;99.90;;;;;;5055784;28;20032;-90
2021/06/01 05:34:48;;;;;;;3.80;2.20;;;17.70;99.90;;;;;;5059860;28;20082;-91
2021/06/01 05:37:13;;;;;;;5.15;2.10;;;17.70;99.90;;;;;;5074928;28;20032;-90
2021/06/01 05:39:39;;;;;;;4.63;2.10;;;17.80;99.90;;;;;;5074956;28;20029;-91
2021/06/01 05:42:05;;;;;;;2.88;2.08;;;17.90;99.90;;;;;;5070384;28;20386;-89
2021/06/01 05:44:31;;;;;;;3.17;2.08;;;17.90;99.90;;;;;;5055807;28;20496;-92
2021/06/01 05:46:56;;;;;;;3.08;2.00;;;18.00;99.90;;;;;;5055360;28;20043;-93
2021/06/01 05:49:22;;;;;;;2.13;1.70;;;18.50;99.90;;;;;;5073557;28;20021;-91
2021/06/01 05:51:48;;;;;;;2.72;2.00;;;18.10;99.90;;;;;;5057309;28;20123;-94
2021/06/01 05:54:14;;;;;;;3.08;1.98;;;18.20;99.90;;;;;;5056386;28;20601;-93
2021/06/01 05:56:40;;;;;;;3.75;2.10;;;18.30;99.90;;;;;;5074322;28;20048;-93
2021/06/01 05:59:06;;;;;;;3.40;2.10;;;18.40;99.90;;;;;;5056804;28;20389;-93
2021/06/01 06:01:32;;;;;;;2.10;2.00;;;18.50;99.90;;;;;;5070992;28;20087;-90
2021/06/01 06:03:58;;;;;;;6.20;2.95;;;18.60;99.90;;;;;;5074191;28;20029;-88
2021/06/01 06:06:24;;;;;;;5.80;2.80;;;18.60;99.90;;;;;;5070173;28;20040;-88
2021/06/01 06:08:50;;;;;;;6.88;2.40;;;18.60;99.90;;;;;;5072525;28;20113;-88
2021/06/01 06:11:15;;;;;;;6.20;2.70;;;18.80;99.90;;;;;;5069485;28;20056;-88
2021/06/01 06:13:41;;;;;;;4.53;2.33;;;18.80;99.90;;;;;;5069596;28;20060;-88
2021/06/01 06:16:07;;;;;;;6.57;2.60;;;18.90;99.90;;;;;;5073957;28;20020;-89
2021/06/01 06:18:47;;;;;;;5.40;2.90;;;19.00;99.90;;;;;;5088429;28;20024;-89
2021/06/01 06:21:13;;;;;;;7.22;2.70;;;19.00;99.90;;;;;;5071585;28;20494;-89
2021/06/01 06:23:40;;;;;;;5.70;2.40;;;19.00;99.90;;;;;;5071577;28;20027;-89
2021/06/01 06:26:07;;;;;;;6.68;2.10;;;19.10;99.90;;;;;;5069831;28;20400;-90
2021/06/01 06:28:33;;;;;;;3.47;2.03;;;19.20;99.90;;;;;;5071565;28;20025;-88
2021/06/01 06:30:59;;;;;;;2.17;1.98;;;19.20;99.90;;;;;;5074518;28;20035;-89
2021/06/01 06:33:25;;;;;;;7.28;2.10;;;19.20;99.90;;;;;;5053407;28;20127;-88
2021/06/01 06:35:51;;;;;;;17.15;4.50;;;19.20;99.90;;;;;;5071546;28;20547;-89
2021/06/01 06:38:17;;;;;;;4.78;2.63;;;19.40;99.90;;;;;;5071563;28;20169;-89
2021/06/01 06:41:16;;;;;;;4.75;2.35;;;19.50;99.90;;;;;;5071315;28;20082;-89
2021/06/01 06:43:53;;;;;;;2.58;2.00;;;19.50;99.90;;;;;;5068597;28;20049;-89
2021/06/01 06:46:35;;;;;;;3.70;2.20;;;19.60;99.90;;;;;;5070121;28;20060;-88
2021/06/01 06:49:03;;;;;;;3.70;2.35;;;19.60;99.90;;;;;;5053415;28;20396;-87
2021/06/01 06:51:30;;;;;;;2.95;2.08;;;19.70;99.90;;;;;;5065664;28;20025;-87
2021/06/01 06:53:57;;;;;;;3.90;2.20;;;19.80;99.90;;;;;;5071420;28;20035;-87
2021/06/01 06:56:31;;;;;;;4.05;2.13;;;19.90;99.90;;;;;;5072291;28;20468;-87
2021/06/01 06:58:58;;;;;;;2.78;1.95;;;20.00;99.90;;;;;;5049425;28;20061;-88
2021/06/01 07:01:25;;;;;;;3.40;2.08;;;20.00;99.90;;;;;;5054227;28;20059;-88
2021/06/01 07:03:52;;;;;;;3.38;2.08;;;20.00;99.90;;;;;;5073211;28;20393;-88
2021/06/01 07:06:18;;;;;;;2.65;2.20;;;20.00;99.90;;;;;;5073960;28;20059;-87
2021/06/01 07:08:44;;;;;;;2.75;1.77;;;20.00;99.90;;;;;;5072907;28;20432;-88
2021/06/01 07:11:10;;;;;;;5.97;2.17;;;20.00;99.90;;;;;;5072606;28;20051;-89
2021/06/01 07:13:48;;;;;;;4.45;2.15;;;20.00;99.90;;;;;;5070837;28;20093;-89
2021/06/01 07:16:14;;;;;;;5.05;2.10;;;20.20;99.90;;;;;;5070340;28;20423;-89
2021/06/01 07:18:41;;;;;;;4.28;2.10;;;20.20;99.90;;;;;;5072631;28;20032;-89
2021/06/01 07:21:08;;;;;;;3.38;2.20;;;20.30;99.90;;;;;;5071593;28;20401;-89
2021/06/01 07:23:35;;;;;;;2.90;2.13;;;20.50;99.90;;;;;;5053401;28;20116;-89
2021/06/01 07:26:02;;;;;;;3.78;2.20;;;20.50;99.90;;;;;;5062268;28;20032;-89
2021/06/01 07:28:28;;;;;;;4.50;2.33;;;20.60;99.90;;;;;;5053425;28;20039;-89
2021/06/01 07:30:53;;;;;;;6.22;2.67;;;20.70;99.90;;;;;;5072296;28;20029;-88
2021/06/01 07:33:19;;;;;;;2.67;2.47;;;20.70;99.90;;;;;;5053590;28;20048;-89
2021/06/01 07:35:45;;;;;;;3.58;2.53;;;20.80;99.90;;;;;;5070472;28;20028;-89
2021/06/01 07:38:12;;;;;;;5.60;2.80;;;20.90;99.90;;;;;;5053700;28;20036;-89
2021/06/01 07:40:40;;;;;;;2.47;2.13;;;21.00;99.90;;;;;;5070307;28;20016;-88
2021/06/01 07:43:06;;;;;;;4.28;2.50;;;21.00;99.90;;;;;;5071706;28;20391;-88
2021/06/01 07:45:32;;;;;;;3.75;2.80;;;21.00;99.90;;;;;;5054091;28;20029;-89
2021/06/01 07:47:58;;;;;;;4.18;2.90;;;21.00;99.90;;;;;;5070079;28;20055;-88
2021/06/01 07:50:25;;;;;;;5.13;2.72;;;21.00;99.90;;;;;;5069726;28;20028;-88
2021/06/01 07:52:51;;;;;;;4.65;2.55;;;21.10;99.90;;;;;;5053439;28;20123;-88
2021/06/01 07:55:16;;;;;;;5.10;3.05;;;21.20;99.90;;;;;;5052456;28;20092;-89
2021/06/01 07:57:42;;;;;;;4.28;2.60;;;21.20;99.90;;;;;;5071868;28;20082;-89
2021/06/01 08:00:10;;;;;;;4.80;2.92;;;21.30;99.90;;;;;;5069399;28;20552;-89
2021/06/01 08:02:36;;;;;;;3.50;3.00;;;21.30;99.90;;;;;;5068220;28;20123;-89
2021/06/01 08:05:02;;;;;;;3.42;2.88;;;21.20;99.90;;;;;;5070526;28;20444;-89
2021/06/01 08:07:28;;;;;;;3.20;2.85;;;21.20;99.90;;;;;;5051981;28;20069;-87
2021/06/01 08:09:53;;;;;;;7.70;3.03;;;21.30;99.90;;;;;;5070507;28;20032;-89
2021/06/01 08:12:19;;;;;;;5.38;2.65;;;21.30;99.90;;;;;;5068291;28;20066;-89
2021/06/01 08:14:45;;;;;;;4.20;3.00;;;21.40;99.90;;;;;;5069355;28;20467;-87
2021/06/01 08:17:11;;;;;;;4.07;3.00;;;21.60;99.90;;;;;;5070385;28;20136;-88
2021/06/01 08:19:40;;;;;;;5.75;3.20;;;21.50;99.90;;;;;;5069087;28;20523;-88
2021/06/01 08:22:13;;;;;;;4.63;3.08;;;21.60;99.90;;;;;;5070586;28;20082;-89
2021/06/01 08:24:39;;;;;;;4.60;3.17;;;21.60;99.90;;;;;;5053393;28;20020;-89
2021/06/01 08:27:05;;;;;;;4.20;3.05;;;21.60;99.90;;;;;;5053223;28;20364;-88
2021/06/01 08:29:31;;;;;;;4.35;3.30;;;21.60;99.90;;;;;;5069834;28;20021;-88
2021/06/01 08:31:57;;;;;;;4.93;3.25;;;21.70;99.90;;;;;;5074586;28;20031;-88
2021/06/01 08:34:22;;;;;;;5.40;3.38;;;21.70;99.90;;;;;;5093583;28;20047;-88
2021/06/01 08:36:49;;;;;;;5.15;2.90;;;21.70;99.90;;;;;;5078063;28;20502;-89
2021/06/01 08:39:15;;;;;;;5.40;3.30;;;21.80;99.90;;;;;;5095767;28;20032;-88
2021/06/01 08:41:43;;;;;;;4.38;3.30;;;21.90;99.90;;;;;;5096449;28;20068;-88
2021/06/01 08:44:12;;;;;;;4.72;3.40;;;22.00;99.90;;;;;;5077463;28;20411;-88
2021/06/01 08:46:38;;;;;;;6.68;3.13;;;22.20;99.90;;;;;;5095598;28;20102;-88
2021/06/01 08:49:04;;;;;;;3.42;2.80;;;22.10;99.90;;;;;;5096381;28;20537;-89
2021/06/01 08:51:30;;;;;;;6.32;3.03;;;22.50;99.90;;;;;;5086746;28;20035;-89
2021/06/01 08:53:58;;;;;;;4.22;3.28;;;22.90;99.90;;;;;;5095399;28;20020;-88
2021/06/01 08:56:25;;;;;;;3.88;3.22;;;23.20;99.90;;;;;;5095344;28;20032;-89
2021/06/01 08:58:51;;;;;;;6.15;2.80;;;23.40;99.90;;;;;;5096223;28;20114;-88
2021/06/01 09:01:18;;;;;;;4.13;2.90;;;23.70;99.90;;;;;;5095831;28;20499;-88
2021/06/01 09:03:54;;;;;;;5.88;3.40;;;23.80;99.90;;;;;;5095783;28;20028;-88
2021/06/01 09:06:30;;;;;;;5.13;3.00;;;24.10;99.90;;;;;;5094016;28;20020;-90
2021/06/01 09:22:38;;;;;;;3.25;2.83;;;23.90;99.90;;;;;;5030251;28;20861;-89
2021/06/01 09:25:06;;;;;;;3.88;2.92;;;24.10;99.90;;;;;;5028152;28;20045;-89
2021/06/01 09:28:01;;;;;;;4.25;3.33;;;24.20;99.90;;;;;;5030922;28;20540;-89
2021/06/01 09:30:36;;;;;;;7.78;3.00;;;24.30;99.90;;;;;;5010767;28;20034;-90
2021/06/01 09:33:07;;;;;;;3.97;3.00;;;23.60;99.90;;;;;;5018572;28;20078;-89
2021/06/01 09:35:48;;;;;;;4.03;3.03;;;23.60;99.90;;;;;;5008881;28;20029;-88
2021/06/01 09:38:15;;;;;;;5.53;3.13;;;23.50;99.90;;;;;;4995656;28;20046;-88
2021/06/01 09:40:41;;;;;;;4.28;3.30;;;24.10;99.90;;;;;;5011379;28;20076;-88
2021/06/01 09:43:15;;;;;;;5.05;3.47;;;23.90;99.90;;;;;;5012067;28;20042;-90
2021/06/01 09:45:42;;;;;;;4.47;3.33;;;24.10;99.90;;;;;;5012130;28;20030;-90
2021/06/01 09:48:10;;;;;;;4.97;2.92;;;24.30;99.90;;;;;;5009166;28;20556;-94
2021/06/01 09:53:24;;;;;;;3.40;2.80;;;25.00;99.90;;;;;;5009085;28;20092;-89
2021/06/01 09:55:50;;;;;;;3.72;3.13;;;25.40;99.90;;;;;;5013269;28;20466;-88
2021/06/01 09:58:36;;;;;;;3.58;2.90;;;25.10;99.90;;;;;;5063819;28;20017;-88
2021/06/01 10:01:06;;;;;;;3.00;2.70;;;25.10;99.90;;;;;;5062618;28;20503;-90
2021/06/01 10:03:48;;;;;;;3.20;2.88;;;24.80;99.90;;;;;;5073120;28;20085;-90
2021/06/01 10:06:15;;;;;;;3.88;2.90;;;24.60;99.90;;;;;;5071004;28;20032;-91
2021/06/01 10:08:45;;;;;;;3.15;2.85;;;24.50;99.90;;;;;;5072907;28;20024;-91
2021/06/01 10:11:12;;;;;;;3.72;3.15;;;24.30;99.90;;;;;;5067300;28;20040;-92
2021/06/01 10:13:39;;;;;;;4.68;3.13;;;24.80;99.90;;;;;;5056052;28;20043;-91
2021/06/01 10:16:08;;;;;;;3.58;2.88;;;24.90;99.90;;;;;;5054599;28;20036;-91
2021/06/01 10:18:34;;;;;;;3.50;3.10;;;25.00;99.90;;;;;;5069516;28;20025;-92
2021/06/01 10:21:03;;;;;;;4.68;3.22;;;25.20;99.90;;;;;;5050277;28;20025;-90
2021/06/01 10:23:32;;;;;;;3.10;2.80;;;25.30;99.90;;;;;;5072915;28;20062;-90
2021/06/01 10:25:59;;;;;;;6.53;3.03;;;25.70;99.90;;;;;;5071641;28;20025;-91
2021/06/01 10:28:32;;;;;;;3.78;3.40;;;25.90;99.90;;;;;;5072402;28;20078;-92
2021/06/01 10:30:58;;;;;;;4.60;2.65;;;25.80;99.90;;;;;;5074114;28;20035;-91
2021/06/01 10:33:27;;;;;;;4.47;3.08;;;25.60;99.90;;;;;;5071543;28;20060;-92
2021/06/01 10:36:18;;;;;;;3.67;3.20;;;25.30;99.90;;;;;;5055572;28;20434;-90
2021/06/01 10:53:26;;;;;;;5.43;2.88;;;25.50;99.90;;;;;;5074660;28;20024;-91
2021/06/01 10:55:54;;;;;;;4.43;2.97;;;25.90;99.90;;;;;;5041563;28;20121;-93
2021/06/01 10:58:33;;;;;;;4.93;3.17;;;26.20;99.90;;;;;;5054143;28;20075;-93
2021/06/01 11:04:12;;;;;;;6.28;2.85;;;26.00;99.90;;;;;;5073862;28;20072;-92
2021/06/01 11:06:48;;;;;;;3.75;2.83;;;26.00;99.90;;;;;;5073970;28;20495;-93
2021/06/01 11:09:32;;;;;;;4.38;2.78;;;25.90;99.90;;;;;;5051395;28;20029;-87
2021/06/01 11:12:26;;;;;;;3.40;3.10;;;25.60;99.90;;;;;;5071204;28;20024;-86
2021/06/01 11:15:22;;;;;;;3.60;2.90;;;26.10;99.90;;;;;;5061876;28;20039;-89
2021/06/01 11:17:48;;;;;;;4.28;2.78;;;26.50;99.90;;;;;;5069410;28;20457;-91
2021/06/01 11:20:37;;;;;;;3.22;2.78;;;26.50;99.90;;;;;;5073823;28;20028;-96
2021/06/01 11:33:54;;;;;;;4.65;2.78;;;26.00;99.90;;;;;;5072107;28;20451;-90
2021/06/01 11:36:20;;;;;;;3.03;2.50;;;25.50;99.90;;;;;;5070824;28;20036;-90
2021/06/01 11:38:56;;;;;;;3.50;2.88;;;25.20;99.90;;;;;;5070373;28;20031;-90
2021/06/01 11:43:58;;;;;;;4.45;2.60;;;25.50;99.90;;;;;;5069314;28;20033;-90
2021/06/01 11:51:24;;;;;;;3.67;2.75;;;25.90;99.90;;;;;;5070137;28;20079;-90
2021/06/01 11:53:52;;;;;;;2.88;2.65;;;26.30;99.90;;;;;;5071791;28;20029;-91
2021/06/01 11:56:36;;;;;;;4.07;2.83;;;26.60;99.90;;;;;;5053406;28;20032;-90
2021/06/01 12:18:41;;;;;;;3.88;2.95;;;32.00;99.90;;;;;;5071912;28;20074;-90
2021/06/01 12:21:10;;;;;;;6.13;2.67;;;32.10;99.90;;;;;;5069768;28;20035;-90
2021/06/01 12:23:41;;;;;;;4.93;2.78;;;32.40;99.90;;;;;;5069601;28;20040;-89
2021/06/01 12:26:16;;;;;;;5.35;2.40;;;32.80;99.90;;;;;;5070026;28;20028;-90
2021/06/01 12:31:52;;;;;;;3.13;2.75;;;33.50;99.90;;;;;;5056282;28;20102;-90
2021/06/01 12:34:31;;;;;;;4.03;2.50;;;32.90;99.90;;;;;;5091203;28;20081;-90
2021/06/01 12:42:53;;;;;;;2.88;2.28;;;31.70;99.90;;;;;;5088893;28;20070;-90
2021/06/01 12:45:26;;;;;;;4.38;2.80;;;31.10;99.90;;;;;;5087441;28;20516;-90
2021/06/01 13:21:35;;;;;;;5.68;2.40;;;30.30;99.90;;;;;;5029791;28;20528;-90
2021/06/01 13:24:22;;;;;;;4.40;2.80;;;30.90;99.90;;;;;;5031920;28;20425;-90
2021/06/01 13:32:49;;;;;;;3.28;2.22;;;29.70;99.90;;;;;;5035884;28;20052;-89
2021/06/01 13:46:05;;;;;;;2.88;2.42;;;31.20;99.90;;;;;;5093802;28;20059;-89
2021/06/01 13:56:18;;;;;;;3.33;2.58;;;30.20;99.90;;;;;;5093323;28;20125;-90
2021/06/01 14:01:51;;;;;;;5.15;2.33;;;29.90;99.90;;;;;;5094012;28;20024;-90
2021/06/01 14:19:20;;;;;;;4.38;3.13;;;30.30;99.90;;;;;;5093617;28;20030;-90
2021/06/01 14:29:35;;;;;;;3.85;2.42;;;29.00;99.90;;;;;;5079536;28;20031;-90
2021/06/01 14:37:35;;;;;;;3.83;2.70;;;28.90;99.90;;;;;;5070056;28;20043;-90
2021/06/01 15:32:38;;;;;;;3.97;2.63;;;27.70;99.90;;;;;;5039546;28;20942;-89
2021/06/01 16:13:44;;;;;;;3.65;2.90;;;28.00;99.90;;;;;;5054455;28;20032;-90
2021/06/01 16:22:00;;;;;;;3.20;2.80;;;28.00;99.90;;;;;;5069426;28;20039;-89
2021/06/01 17:05:49;;;;;;;3.75;2.85;;;26.30;99.90;;;;;;5073461;28;20047;-90
2021/06/01 17:11:03;;;;;;;5.90;2.80;;;26.40;99.90;;;;;;5073112;28;20043;-90
2021/06/01 17:13:48;;;;;;;8.20;3.25;;;26.40;99.90;;;;;;5057159;28;20017;-90
2021/06/01 17:16:41;;;;;;;6.43;3.17;;;26.10;99.90;;;;;;5070739;28;20029;-90
2021/06/01 17:35:19;;;;;;;4.18;2.72;;;25.80;99.90;;;;;;5093115;28;20039;-90
2021/06/01 17:37:45;;;;;;;5.38;3.15;;;25.80;99.90;;;;;;5086391;28;20078;-90
2021/06/01 17:40:14;;;;;;;6.30;2.80;;;25.70;99.90;;;;;;5092919;28;20484;-91
2021/06/01 17:42:54;;;;;;;3.95;2.80;;;25.40;99.90;;;;;;5086017;28;20032;-89
2021/06/01 17:45:24;;;;;;;4.30;3.28;;;25.20;99.90;;;;;;5092653;28;20028;-90
2021/06/01 17:47:59;;;;;;;3.50;3.20;;;25.20;99.90;;;;;;5087844;28;20115;-89
2021/06/01 17:50:25;;;;;;;6.30;3.10;;;24.90;99.90;;;;;;5088900;28;20024;-89
2021/06/01 17:52:54;;;;;;;7.70;3.50;;;24.70;99.90;;;;;;5076571;28;20066;-89
2021/06/01 17:55:25;;;;;;;5.63;3.00;;;24.50;99.90;;;;;;5090734;28;20752;-88
2021/06/01 17:57:51;;;;;;;6.60;2.97;;;24.50;99.90;;;;;;5089002;28;20052;-88
2021/06/01 18:00:20;;;;;;;5.18;2.67;;;24.30;99.90;;;;;;5091845;28;20089;-90
2021/06/01 18:02:48;;;;;;;6.93;3.33;;;24.30;99.90;;;;;;5095110;28;20457;-90
2021/06/01 18:05:15;;;;;;;3.40;3.10;;;24.20;99.90;;;;;;5093656;28;20028;-90
2021/06/01 18:08:04;;;;;;;7.72;2.90;;;24.10;99.90;;;;;;5094935;28;20044;-90
2021/06/01 18:13:53;;;;;;;3.63;3.03;;;24.30;99.90;;;;;;5094606;28;20028;-88
2021/06/01 19:00:23;;;;;;;4.90;2.92;;;23.10;99.90;;;;;;5008951;28;20839;-89
2021/06/01 19:24:46;;;;;;;2.90;2.70;;;21.90;99.90;;;;;;5089057;28;20056;-88
2021/06/01 19:52:08;;;;;;;4.22;2.50;;;21.10;99.90;;;;;;5011686;28;20101;-89
2021/06/01 19:54:34;;;;;;;4.28;2.72;;;21.10;99.90;;;;;;5010424;28;20449;-87
2021/06/01 19:57:01;;;;;;;2.90;2.60;;;21.10;99.90;;;;;;5010009;28;20465;-86
2021/06/01 19:59:28;;;;;;;5.25;2.75;;;21.10;99.90;;;;;;5008707;28;20052;-86
2021/06/01 20:01:54;;;;;;;3.55;2.80;;;21.00;99.90;;;;;;5009813;28;20030;-90
2021/06/01 20:04:20;;;;;;;4.88;2.88;;;20.90;99.90;;;;;;5011967;28;20030;-92
2021/06/01 20:06:47;;;;;;;4.88;2.80;;;20.80;99.90;;;;;;5080923;28;20032;-89
2021/06/01 20:09:16;;;;;;;4.72;2.95;;;20.80;99.90;;;;;;5074405;28;20034;-88